sensor_id;sensor_type;location;lat;lon;timestamp;pressure;altitude;pressure_sealevel;temperature;humidity
59951;BME280;45812;53.540;9.774;2023-04-21T00:01:59;102085.34;;;8.67;92.10
59951;BME280;45812;53.540;9.774;2023-04-21T00:04:24;102083.78;;;8.65;91.98
59951;BME280;45812;53.540;9.774;2023-04-21T00:06:50;102079.69;;;8.61;92.04
59951;BME280;45812;53.540;9.774;2023-04-21T00:09:17;102084.16;;;8.60;92.47
59951;BME280;45812;53.540;9.774;2023-04-21T00:11:42;102084.16;;;8.60;92.49
59951;BME280;45812;53.540;9.774;2023-04-21T00:14:08;102085.25;;;8.58;92.38
59951;BME280;45812;53.540;9.774;2023-04-21T00:16:33;102088.94;;;8.55;92.65
59951;BME280;45812;53.540;9.774;2023-04-21T00:18:58;102089.91;;;8.54;92.98
59951;BME280;45812;53.540;9.774;2023-04-21T00:21:23;102081.34;;;8.50;93.07
59951;BME280;45812;53.540;9.774;2023-04-21T00:23:49;102074.34;;;8.49;93.15
59951;BME280;45812;53.540;9.774;2023-04-21T00:26:14;102076.28;;;8.47;93.37
59951;BME280;45812;53.540;9.774;2023-04-21T00:28:39;102073.63;;;8.47;93.45
59951;BME280;45812;53.540;9.774;2023-04-21T00:31:05;102076.28;;;8.47;93.91
59951;BME280;45812;53.540;9.774;2023-04-21T00:33:30;102071.22;;;8.44;94.12
59951;BME280;45812;53.540;9.774;2023-04-21T00:35:55;102072.19;;;8.43;93.95
59951;BME280;45812;53.540;9.774;2023-04-21T00:38:23;102068.81;;;8.41;93.86
59951;BME280;45812;53.540;9.774;2023-04-21T00:40:48;102065.44;;;8.39;94.42
59951;BME280;45812;53.540;9.774;2023-04-21T00:43:13;102066.38;;;8.38;94.64
59951;BME280;45812;53.540;9.774;2023-04-21T00:45:38;102068.19;;;8.38;94.66
59951;BME280;45812;53.540;9.774;2023-04-21T00:48:05;102061.19;;;8.37;94.71
59951;BME280;45812;53.540;9.774;2023-04-21T00:50:31;102051.72;;;8.33;94.85
59951;BME280;45812;53.540;9.774;2023-04-21T00:52:56;102060.25;;;8.38;94.98
59951;BME280;45812;53.540;9.774;2023-04-21T00:55:22;102050.47;;;8.38;94.87
59951;BME280;45812;53.540;9.774;2023-04-21T00:57:49;102053.25;;;8.37;94.87
59951;BME280;45812;53.540;9.774;2023-04-21T01:00:16;102057.66;;;8.36;94.99
59951;BME280;45812;53.540;9.774;2023-04-21T01:02:41;102057.66;;;8.36;95.11
59951;BME280;45812;53.540;9.774;2023-04-21T01:05:09;102056.09;;;8.34;95.12
59951;BME280;45812;53.540;9.774;2023-04-21T01:07:35;102053.53;;;8.32;95.76
59951;BME280;45812;53.540;9.774;2023-04-21T01:10:01;102058.00;;;8.32;96.07
59951;BME280;45812;53.540;9.774;2023-04-21T01:12:27;102042.19;;;8.30;96.37
59951;BME280;45812;53.540;9.774;2023-04-21T01:14:52;102056.31;;;8.31;96.47
59951;BME280;45812;53.540;9.774;2023-04-21T01:17:18;102036.28;;;8.27;96.62
59951;BME280;45812;53.540;9.774;2023-04-21T01:19:43;102041.25;;;8.31;96.85
59951;BME280;45812;53.540;9.774;2023-04-21T01:22:10;102043.06;;;8.31;96.85
59951;BME280;45812;53.540;9.774;2023-04-21T01:24:46;102046.53;;;8.31;96.91
59951;BME280;45812;53.540;9.774;2023-04-21T01:27:19;102043.88;;;8.31;97.39
59951;BME280;45812;53.540;9.774;2023-04-21T01:29:48;102041.25;;;8.31;97.72
59951;BME280;45812;53.540;9.774;2023-04-21T01:32:16;102040.41;;;8.31;97.77
59951;BME280;45812;53.540;9.774;2023-04-21T01:34:42;102040.41;;;8.31;97.88
59951;BME280;45812;53.540;9.774;2023-04-21T01:37:09;102031.84;;;8.27;98.27
59951;BME280;45812;53.540;9.774;2023-04-21T01:39:39;102042.19;;;8.30;98.13
59951;BME280;45812;53.540;9.774;2023-04-21T01:42:05;102041.34;;;8.30;98.11
59951;BME280;45812;53.540;9.774;2023-04-21T01:44:30;102033.41;;;8.30;98.53
59951;BME280;45812;53.540;9.774;2023-04-21T01:46:55;102040.50;;;8.29;98.18
59951;BME280;45812;53.540;9.774;2023-04-21T01:49:20;102035.22;;;8.29;98.16
59951;BME280;45812;53.540;9.774;2023-04-21T01:51:46;102037.03;;;8.29;98.43
59951;BME280;45812;53.540;9.774;2023-04-21T01:54:11;102036.19;;;8.28;98.32
59951;BME280;45812;53.540;9.774;2023-04-21T01:56:36;102033.53;;;8.28;98.09
59951;BME280;45812;53.540;9.774;2023-04-21T01:59:02;102030.16;;;8.26;98.08
59951;BME280;45812;53.540;9.774;2023-04-21T02:01:28;102025.56;;;8.28;98.14
59951;BME280;45812;53.540;9.774;2023-04-21T02:03:53;102021.34;;;8.26;98.31
59951;BME280;45812;53.540;9.774;2023-04-21T02:06:18;102013.50;;;8.24;98.25
59951;BME280;45812;53.540;9.774;2023-04-21T02:08:43;102012.53;;;8.25;98.62
59951;BME280;45812;53.540;9.774;2023-04-21T02:11:09;102004.94;;;8.20;98.58
59951;BME280;45812;53.540;9.774;2023-04-21T02:13:34;102014.34;;;8.25;98.76
59951;BME280;45812;53.540;9.774;2023-04-21T02:15:59;102021.47;;;8.24;98.75
59951;BME280;45812;53.540;9.774;2023-04-21T02:18:25;102014.47;;;8.23;98.98
59951;BME280;45812;53.540;9.774;2023-04-21T02:20:50;102012.78;;;8.22;99.15
59951;BME280;45812;53.540;9.774;2023-04-21T02:23:16;102017.13;;;8.23;99.08
59951;BME280;45812;53.540;9.774;2023-04-21T02:25:41;102012.78;;;8.22;99.08
59951;BME280;45812;53.540;9.774;2023-04-21T02:28:06;102008.31;;;8.23;99.21
59951;BME280;45812;53.540;9.774;2023-04-21T02:30:32;102010.00;;;8.24;99.39
59951;BME280;45812;53.540;9.774;2023-04-21T02:32:58;102013.75;;;8.21;99.32
59951;BME280;45812;53.540;9.774;2023-04-21T02:35:23;102004.94;;;8.20;99.21
59951;BME280;45812;53.540;9.774;2023-04-21T02:37:48;102012.19;;;8.18;99.43
59951;BME280;45812;53.540;9.774;2023-04-21T02:40:13;102016.59;;;8.18;99.65
59951;BME280;45812;53.540;9.774;2023-04-21T02:42:39;102018.53;;;8.16;99.44
59951;BME280;45812;53.540;9.774;2023-04-21T02:45:04;102013.22;;;8.16;99.75
59951;BME280;45812;53.540;9.774;2023-04-21T02:47:30;102011.53;;;8.15;99.47
59951;BME280;45812;53.540;9.774;2023-04-21T02:49:55;102005.41;;;8.14;99.38
59951;BME280;45812;53.540;9.774;2023-04-21T02:52:20;102011.78;;;8.12;99.68
59951;BME280;45812;53.540;9.774;2023-04-21T02:54:45;102017.81;;;8.14;99.62
59951;BME280;45812;53.540;9.774;2023-04-21T02:57:11;102011.78;;;8.12;99.88
59951;BME280;45812;53.540;9.774;2023-04-21T02:59:36;102017.81;;;8.14;99.97
59951;BME280;45812;53.540;9.774;2023-04-21T03:02:01;102021.44;;;8.13;99.92
59951;BME280;45812;53.540;9.774;2023-04-21T03:04:26;102014.31;;;8.13;100.00
59951;BME280;45812;53.540;9.774;2023-04-21T03:06:52;102013.59;;;8.11;100.00
59951;BME280;45812;53.540;9.774;2023-04-21T03:09:18;102011.06;;;8.10;100.00
59951;BME280;45812;53.540;9.774;2023-04-21T03:11:43;102007.91;;;8.05;100.00
59951;BME280;45812;53.540;9.774;2023-04-21T03:14:08;102007.69;;;8.08;100.00
59951;BME280;45812;53.540;9.774;2023-04-21T03:16:34;102011.19;;;8.08;100.00
59951;BME280;45812;53.540;9.774;2023-04-21T03:18:59;102014.91;;;8.06;100.00
59951;BME280;45812;53.540;9.774;2023-04-21T03:21:24;102011.28;;;8.07;100.00
59951;BME280;45812;53.540;9.774;2023-04-21T03:23:51;102006.13;;;8.05;100.00
59951;BME280;45812;53.540;9.774;2023-04-21T03:26:16;101996.47;;;8.04;100.00
59951;BME280;45812;53.540;9.774;2023-04-21T03:28:42;102001.78;;;8.04;100.00
59951;BME280;45812;53.540;9.774;2023-04-21T03:31:07;102001.03;;;8.02;100.00
59951;BME280;45812;53.540;9.774;2023-04-21T03:33:32;101999.25;;;8.03;100.00
59951;BME280;45812;53.540;9.774;2023-04-21T03:35:57;102003.81;;;8.01;100.00
59951;BME280;45812;53.540;9.774;2023-04-21T03:38:23;102000.19;;;8.02;100.00
59951;BME280;45812;53.540;9.774;2023-04-21T03:40:48;102000.19;;;8.02;100.00
59951;BME280;45812;53.540;9.774;2023-04-21T03:43:13;102001.16;;;8.01;100.00
59951;BME280;45812;53.540;9.774;2023-04-21T03:45:39;102002.00;;;8.01;100.00
59951;BME280;45812;53.540;9.774;2023-04-21T03:48:04;102010.81;;;8.02;100.00
59951;BME280;45812;53.540;9.774;2023-04-21T03:50:29;101996.81;;;8.00;100.00
59951;BME280;45812;53.540;9.774;2023-04-21T03:52:55;102000.41;;;7.99;100.00
59951;BME280;45812;53.540;9.774;2023-04-21T03:55:20;101999.56;;;7.98;100.00
59951;BME280;45812;53.540;9.774;2023-04-21T03:57:45;102002.22;;;7.98;100.00
59951;BME280;45812;53.540;9.774;2023-04-21T04:00:11;101992.56;;;7.97;100.00
59951;BME280;45812;53.540;9.774;2023-04-21T04:02:40;101996.19;;;7.96;100.00
59951;BME280;45812;53.540;9.774;2023-04-21T04:05:06;101999.56;;;7.98;100.00
59951;BME280;45812;53.540;9.774;2023-04-21T04:07:32;101995.09;;;7.99;100.00
59951;BME280;45812;53.540;9.774;2023-04-21T04:09:57;101994.25;;;7.98;100.00
59951;BME280;45812;53.540;9.774;2023-04-21T04:12:22;101996.06;;;7.98;100.00
59951;BME280;45812;53.540;9.774;2023-04-21T04:14:47;102000.41;;;7.99;100.00
59951;BME280;45812;53.540;9.774;2023-04-21T04:17:13;102004.88;;;7.98;100.00
59951;BME280;45812;53.540;9.774;2023-04-21T04:19:38;102001.25;;;7.99;100.00
59951;BME280;45812;53.540;9.774;2023-04-21T04:22:03;102002.13;;;8.00;99.89
59951;BME280;45812;53.540;9.774;2023-04-21T04:24:31;101999.34;;;8.01;99.98
59951;BME280;45812;53.540;9.774;2023-04-21T04:26:57;102004.53;;;8.03;99.93
59951;BME280;45812;53.540;9.774;2023-04-21T04:29:24;102008.88;;;8.04;99.87
59951;BME280;45812;53.540;9.774;2023-04-21T04:31:49;102001.88;;;8.03;99.92
59951;BME280;45812;53.540;9.774;2023-04-21T04:34:15;101991.16;;;8.04;99.58
59951;BME280;45812;53.540;9.774;2023-04-21T04:36:40;101994.53;;;8.06;99.01
59951;BME280;45812;53.540;9.774;2023-04-21T04:39:06;101996.94;;;8.09;99.18
59951;BME280;45812;53.540;9.774;2023-04-21T04:41:32;101986.22;;;8.11;99.29
59951;BME280;45812;53.540;9.774;2023-04-21T04:43:58;101995.63;;;8.15;99.38
59951;BME280;45812;53.540;9.774;2023-04-21T04:46:24;102000.59;;;8.19;98.94
59951;BME280;45812;53.540;9.774;2023-04-21T04:48:50;101988.06;;;8.22;98.89
59951;BME280;45812;53.540;9.774;2023-04-21T04:51:15;101986.25;;;8.22;99.09
59951;BME280;45812;53.540;9.774;2023-04-21T04:53:41;101984.94;;;8.28;98.61
59951;BME280;45812;53.540;9.774;2023-04-21T04:56:06;101993.59;;;8.30;98.65
59951;BME280;45812;53.540;9.774;2023-04-21T04:58:31;101989.88;;;8.32;98.46
59951;BME280;45812;53.540;9.774;2023-04-21T05:00:56;101987.84;;;8.36;98.17
59951;BME280;45812;53.540;9.774;2023-04-21T05:03:22;101992.69;;;8.42;98.26
59951;BME280;45812;53.540;9.774;2023-04-21T05:05:47;101998.00;;;8.42;97.86
59951;BME280;45812;53.540;9.774;2023-04-21T05:08:13;102001.13;;;8.47;97.61
59951;BME280;45812;53.540;9.774;2023-04-21T05:10:39;101992.09;;;8.49;97.64
59951;BME280;45812;53.540;9.774;2023-04-21T05:13:04;102005.13;;;8.53;97.79
59951;BME280;45812;53.540;9.774;2023-04-21T05:15:29;101997.78;;;8.56;97.49
59951;BME280;45812;53.540;9.774;2023-04-21T05:17:55;102002.72;;;8.61;97.23
59951;BME280;45812;53.540;9.774;2023-04-21T05:20:20;102003.19;;;8.66;96.91
59951;BME280;45812;53.540;9.774;2023-04-21T05:22:45;102003.06;;;8.67;96.58
59951;BME280;45812;53.540;9.774;2023-04-21T05:25:11;102006.31;;;8.71;96.34
59951;BME280;45812;53.540;9.774;2023-04-21T05:27:40;102005.84;;;8.77;95.88
59951;BME280;45812;53.540;9.774;2023-04-21T05:30:06;101996.22;;;8.76;95.34
59951;BME280;45812;53.540;9.774;2023-04-21T05:32:32;101998.97;;;8.86;95.42
59951;BME280;45812;53.540;9.774;2023-04-21T05:34:57;101995.09;;;8.90;94.74
59951;BME280;45812;53.540;9.774;2023-04-21T05:37:23;101998.38;;;8.93;95.04
59951;BME280;45812;53.540;9.774;2023-04-21T05:39:49;101994.50;;;8.97;94.73
59951;BME280;45812;53.540;9.774;2023-04-21T05:42:15;101990.75;;;9.00;94.76
59951;BME280;45812;53.540;9.774;2023-04-21T05:44:42;101990.25;;;9.06;95.15
59951;BME280;45812;53.540;9.774;2023-04-21T05:47:07;101995.06;;;9.12;94.59
59951;BME280;45812;53.540;9.774;2023-04-21T05:49:32;101992.03;;;9.17;94.13
59951;BME280;45812;53.540;9.774;2023-04-21T05:51:58;101991.66;;;9.21;94.49
59951;BME280;45812;53.540;9.774;2023-04-21T05:54:23;101997.44;;;9.26;93.44
59951;BME280;45812;53.540;9.774;2023-04-21T05:56:49;101993.59;;;9.30;92.77
59951;BME280;45812;53.540;9.774;2023-04-21T05:59:14;101993.19;;;9.35;92.76
59951;BME280;45812;53.540;9.774;2023-04-21T06:01:41;101992.69;;;9.41;92.97
59951;BME280;45812;53.540;9.774;2023-04-21T06:04:06;101983.47;;;9.45;93.42
59951;BME280;45812;53.540;9.774;2023-04-21T06:06:32;101982.38;;;9.48;92.63
59951;BME280;45812;53.540;9.774;2023-04-21T06:08:57;101974.19;;;9.51;92.63
59951;BME280;45812;53.540;9.774;2023-04-21T06:11:22;101982.47;;;9.57;92.33
59951;BME280;45812;53.540;9.774;2023-04-21T06:13:48;101982.22;;;9.60;92.05
59951;BME280;45812;53.540;9.774;2023-04-21T06:16:14;101997.66;;;9.66;90.70
59951;BME280;45812;53.540;9.774;2023-04-21T06:18:39;101986.53;;;9.73;91.29
59951;BME280;45812;53.540;9.774;2023-04-21T06:21:04;101986.13;;;9.77;91.00
59951;BME280;45812;53.540;9.774;2023-04-21T06:23:29;101991.06;;;9.82;90.47
59951;BME280;45812;53.540;9.774;2023-04-21T06:26:05;101986.94;;;9.89;88.79
59951;BME280;45812;53.540;9.774;2023-04-21T06:28:32;101985.56;;;9.94;87.81
59951;BME280;45812;53.540;9.774;2023-04-21T06:31:01;101981.94;;;9.95;88.20
59951;BME280;45812;53.540;9.774;2023-04-21T06:33:27;101987.31;;;10.05;87.98
59951;BME280;45812;53.540;9.774;2023-04-21T06:35:52;101985.09;;;10.10;87.14
59951;BME280;45812;53.540;9.774;2023-04-21T06:38:18;101976.59;;;10.16;87.02
59951;BME280;45812;53.540;9.774;2023-04-21T06:40:44;101977.91;;;10.22;85.93
59951;BME280;45812;53.540;9.774;2023-04-21T06:43:09;101981.75;;;10.29;86.25
59951;BME280;45812;53.540;9.774;2023-04-21T06:45:34;101972.38;;;10.35;86.68
59951;BME280;45812;53.540;9.774;2023-04-21T06:48:00;101969.31;;;10.39;86.09
59951;BME280;45812;53.540;9.774;2023-04-21T06:50:25;101974.97;;;10.46;86.51
59951;BME280;45812;53.540;9.774;2023-04-21T06:52:50;101973.59;;;10.51;85.56
59951;BME280;45812;53.540;9.774;2023-04-21T06:55:16;101967.72;;;10.57;85.37
59951;BME280;45812;53.540;9.774;2023-04-21T06:57:41;101965.66;;;10.61;86.21
59951;BME280;45812;53.540;9.774;2023-04-21T07:00:07;101970.03;;;10.72;85.31
59951;BME280;45812;53.540;9.774;2023-04-21T07:02:32;101967.66;;;10.78;85.92
59951;BME280;45812;53.540;9.774;2023-04-21T07:04:57;101960.13;;;10.83;85.99
59951;BME280;45812;53.540;9.774;2023-04-21T07:07:23;101954.38;;;10.88;85.56
59951;BME280;45812;53.540;9.774;2023-04-21T07:09:48;101959.13;;;10.94;86.53
59951;BME280;45812;53.540;9.774;2023-04-21T07:12:13;101954.97;;;11.01;84.51
59951;BME280;45812;53.540;9.774;2023-04-21T07:14:39;101956.38;;;11.05;84.23
59951;BME280;45812;53.540;9.774;2023-04-21T07:17:04;101955.94;;;11.10;84.19
59951;BME280;45812;53.540;9.774;2023-04-21T07:19:30;101952.75;;;11.16;85.55
59951;BME280;45812;53.540;9.774;2023-04-21T07:21:55;101946.03;;;11.21;83.61
59951;BME280;45812;53.540;9.774;2023-04-21T07:24:20;101947.28;;;11.27;82.33
59951;BME280;45812;53.540;9.774;2023-04-21T07:26:45;101951.19;;;11.33;81.30
59951;BME280;45812;53.540;9.774;2023-04-21T07:29:11;101939.31;;;11.37;81.61
59951;BME280;45812;53.540;9.774;2023-04-21T07:31:36;101938.03;;;11.41;80.25
59951;BME280;45812;53.540;9.774;2023-04-21T07:34:01;101943.63;;;11.47;78.92
59951;BME280;45812;53.540;9.774;2023-04-21T07:36:26;101943.34;;;11.50;77.78
59951;BME280;45812;53.540;9.774;2023-04-21T07:38:52;101949.13;;;11.56;77.73
59951;BME280;45812;53.540;9.774;2023-04-21T07:41:17;101946.03;;;11.60;76.81
59951;BME280;45812;53.540;9.774;2023-04-21T07:43:43;101947.13;;;11.67;76.92
59951;BME280;45812;53.540;9.774;2023-04-21T07:46:09;101951.09;;;11.73;79.71
59951;BME280;45812;53.540;9.774;2023-04-21T07:48:34;101946.03;;;11.79;76.62
59951;BME280;45812;53.540;9.774;2023-04-21T07:51:00;101944.75;;;11.83;76.06
59951;BME280;45812;53.540;9.774;2023-04-21T07:53:27;101945.75;;;11.92;76.41
59951;BME280;45812;53.540;9.774;2023-04-21T07:55:52;101939.81;;;11.98;76.85
59951;BME280;45812;53.540;9.774;2023-04-21T07:58:18;101941.06;;;12.04;75.51
59951;BME280;45812;53.540;9.774;2023-04-21T08:00:43;101940.38;;;12.11;76.74
59951;BME280;45812;53.540;9.774;2023-04-21T08:03:08;101935.28;;;12.18;75.04
59951;BME280;45812;53.540;9.774;2023-04-21T08:05:34;101931.88;;;12.26;75.88
59951;BME280;45812;53.540;9.774;2023-04-21T08:07:59;101933.81;;;12.33;74.98
59951;BME280;45812;53.540;9.774;2023-04-21T08:10:25;101929.56;;;12.40;75.84
59951;BME280;45812;53.540;9.774;2023-04-21T08:12:50;101943.88;;;12.49;74.69
59951;BME280;45812;53.540;9.774;2023-04-21T08:15:15;101944.81;;;12.58;74.39
59951;BME280;45812;53.540;9.774;2023-04-21T08:17:41;101929.06;;;12.64;75.00
59951;BME280;45812;53.540;9.774;2023-04-21T08:20:06;101932.66;;;12.73;72.95
59951;BME280;45812;53.540;9.774;2023-04-21T08:22:32;101924.88;;;12.80;72.03
59951;BME280;45812;53.540;9.774;2023-04-21T08:24:57;101929.31;;;12.89;72.00
59951;BME280;45812;53.540;9.774;2023-04-21T08:27:22;101928.41;;;12.98;71.11
59951;BME280;45812;53.540;9.774;2023-04-21T08:29:48;101928.34;;;13.08;71.86
59951;BME280;45812;53.540;9.774;2023-04-21T08:32:14;101926.47;;;13.18;70.97
59951;BME280;45812;53.540;9.774;2023-04-21T08:34:40;101928.25;;;13.27;72.78
59951;BME280;45812;53.540;9.774;2023-04-21T08:37:05;101919.28;;;13.36;70.32
59951;BME280;45812;53.540;9.774;2023-04-21T08:39:30;101924.41;;;13.47;69.93
59951;BME280;45812;53.540;9.774;2023-04-21T08:41:57;101925.31;;;13.56;68.59
59951;BME280;45812;53.540;9.774;2023-04-21T08:44:23;101919.88;;;13.66;69.46
59951;BME280;45812;53.540;9.774;2023-04-21T08:46:48;101915.13;;;13.77;69.61
59951;BME280;45812;53.540;9.774;2023-04-21T08:49:18;101914.19;;;13.86;69.07
59951;BME280;45812;53.540;9.774;2023-04-21T08:51:44;101916.44;;;13.99;71.87
59951;BME280;45812;53.540;9.774;2023-04-21T08:54:10;101912.31;;;14.13;67.90
59951;BME280;45812;53.540;9.774;2023-04-21T08:56:35;101913.06;;;14.23;67.76
59951;BME280;45812;53.540;9.774;2023-04-21T08:59:01;101912.13;;;14.32;66.65
59951;BME280;45812;53.540;9.774;2023-04-21T09:01:26;101910.84;;;14.44;68.93
59951;BME280;45812;53.540;9.774;2023-04-21T09:03:51;101906.91;;;14.57;67.44
59951;BME280;45812;53.540;9.774;2023-04-21T09:06:16;101909.25;;;14.68;66.27
59951;BME280;45812;53.540;9.774;2023-04-21T09:08:43;101902.59;;;14.80;63.94
59951;BME280;45812;53.540;9.774;2023-04-21T09:11:16;101905.00;;;14.91;62.53
59951;BME280;45812;53.540;9.774;2023-04-21T09:13:42;101908.00;;;15.04;65.41
59951;BME280;45812;53.540;9.774;2023-04-21T09:16:15;101905.19;;;15.22;64.32
59951;BME280;45812;53.540;9.774;2023-04-21T09:18:42;101905.38;;;15.37;64.56
59951;BME280;45812;53.540;9.774;2023-04-21T09:21:10;101907.41;;;15.51;61.29
59951;BME280;45812;53.540;9.774;2023-04-21T09:23:47;101906.59;;;15.67;59.33
59951;BME280;45812;53.540;9.774;2023-04-21T09:26:13;101898.84;;;15.80;59.78
59951;BME280;45812;53.540;9.774;2023-04-21T09:28:42;101902.34;;;15.97;61.89
59951;BME280;45812;53.540;9.774;2023-04-21T09:31:16;101901.94;;;16.16;59.20
59951;BME280;45812;53.540;9.774;2023-04-21T09:33:51;101903.41;;;16.35;58.53
59951;BME280;45812;53.540;9.774;2023-04-21T09:36:18;101895.94;;;16.53;58.93
59951;BME280;45812;53.540;9.774;2023-04-21T09:38:48;101884.09;;;16.79;58.93
59951;BME280;45812;53.540;9.774;2023-04-21T09:41:15;101889.41;;;17.10;55.96
59951;BME280;45812;53.540;9.774;2023-04-21T09:43:41;101883.41;;;17.45;54.55
59951;BME280;45812;53.540;9.774;2023-04-21T09:46:06;101886.13;;;17.83;54.90
59951;BME280;45812;53.540;9.774;2023-04-21T09:48:34;101882.19;;;18.23;53.14
59951;BME280;45812;53.540;9.774;2023-04-21T09:51:00;101884.25;;;18.57;51.02
59951;BME280;45812;53.540;9.774;2023-04-21T09:53:27;101873.50;;;19.15;51.03
59951;BME280;45812;53.540;9.774;2023-04-21T09:55:52;101877.94;;;19.44;48.29
59951;BME280;45812;53.540;9.774;2023-04-21T09:58:22;101873.41;;;19.72;48.95
59951;BME280;45812;53.540;9.774;2023-04-21T10:00:52;101866.09;;;20.01;47.70
59951;BME280;45812;53.540;9.774;2023-04-21T10:03:22;101874.53;;;20.19;45.84
59951;BME280;45812;53.540;9.774;2023-04-21T10:05:48;101868.25;;;20.12;47.84
59951;BME280;45812;53.540;9.774;2023-04-21T10:08:15;101861.00;;;20.19;47.44
59951;BME280;45812;53.540;9.774;2023-04-21T10:10:41;101860.03;;;20.33;47.22
59951;BME280;45812;53.540;9.774;2023-04-21T10:13:12;101853.50;;;20.55;47.58
59951;BME280;45812;53.540;9.774;2023-04-21T10:15:39;101852.56;;;20.90;47.96
59951;BME280;45812;53.540;9.774;2023-04-21T10:18:15;101856.16;;;21.56;46.20
59951;BME280;45812;53.540;9.774;2023-04-21T10:21:06;101845.91;;;22.04;42.02
59951;BME280;45812;53.540;9.774;2023-04-21T10:23:42;101839.16;;;22.65;40.90
59951;BME280;45812;53.540;9.774;2023-04-21T10:26:11;101842.56;;;23.23;40.93
59951;BME280;45812;53.540;9.774;2023-04-21T10:31:31;101831.72;;;25.18;34.31
59951;BME280;45812;53.540;9.774;2023-04-21T10:39:34;101823.34;;;27.15;30.72
59951;BME280;45812;53.540;9.774;2023-04-21T10:47:40;101803.78;;;28.99;30.04
59951;BME280;45812;53.540;9.774;2023-04-21T10:55:30;101788.69;;;31.60;26.32
59951;BME280;45812;53.540;9.774;2023-04-21T10:57:55;101792.25;;;32.40;24.63
59951;BME280;45812;53.540;9.774;2023-04-21T11:00:23;101790.31;;;33.14;23.58
59951;BME280;45812;53.540;9.774;2023-04-21T11:02:56;101787.44;;;33.77;21.33
59951;BME280;45812;53.540;9.774;2023-04-21T11:05:30;101785.06;;;34.13;20.01
59951;BME280;45812;53.540;9.774;2023-04-21T11:08:03;101777.13;;;34.49;19.88
59951;BME280;45812;53.540;9.774;2023-04-21T11:10:28;101780.72;;;35.01;20.68
59951;BME280;45812;53.540;9.774;2023-04-21T11:12:56;101772.41;;;35.47;20.40
59951;BME280;45812;53.540;9.774;2023-04-21T11:15:21;101770.03;;;35.96;18.75
59951;BME280;45812;53.540;9.774;2023-04-21T11:17:46;101757.50;;;36.12;18.43
59951;BME280;45812;53.540;9.774;2023-04-21T11:20:12;101755.25;;;36.00;17.48
59951;BME280;45812;53.540;9.774;2023-04-21T11:22:37;101755.59;;;36.35;18.10
59951;BME280;45812;53.540;9.774;2023-04-21T11:25:03;101744.94;;;36.73;17.90
59951;BME280;45812;53.540;9.774;2023-04-21T11:27:29;101737.47;;;37.05;16.75
59951;BME280;45812;53.540;9.774;2023-04-21T11:29:55;101739.31;;;37.40;16.18
59951;BME280;45812;53.540;9.774;2023-04-21T11:32:21;101738.59;;;37.83;16.02
59951;BME280;45812;53.540;9.774;2023-04-21T11:34:46;101738.94;;;38.07;15.17
59951;BME280;45812;53.540;9.774;2023-04-21T11:37:19;101732.78;;;38.19;16.48
59951;BME280;45812;53.540;9.774;2023-04-21T11:39:44;101725.38;;;38.58;15.50
59951;BME280;45812;53.540;9.774;2023-04-21T11:42:10;101727.09;;;39.05;16.12
59951;BME280;45812;53.540;9.774;2023-04-21T11:44:41;101710.03;;;39.75;15.34
59951;BME280;45812;53.540;9.774;2023-04-21T11:47:23;101707.44;;;40.32;15.41
59951;BME280;45812;53.540;9.774;2023-04-21T11:49:54;101707.16;;;40.79;14.81
59951;BME280;45812;53.540;9.774;2023-04-21T11:52:27;101694.44;;;41.14;13.73
59951;BME280;45812;53.540;9.774;2023-04-21T11:54:55;101691.50;;;41.60;14.00
59951;BME280;45812;53.540;9.774;2023-04-21T11:57:22;101702.94;;;41.67;13.41
59951;BME280;45812;53.540;9.774;2023-04-21T11:59:48;101687.09;;;41.99;12.96
59951;BME280;45812;53.540;9.774;2023-04-21T12:02:23;101686.50;;;42.06;12.38
59951;BME280;45812;53.540;9.774;2023-04-21T12:05:09;101685.44;;;42.38;12.92
59951;BME280;45812;53.540;9.774;2023-04-21T12:07:36;101680.47;;;42.59;12.26
59951;BME280;45812;53.540;9.774;2023-04-21T12:10:08;101674.88;;;42.91;13.13
59951;BME280;45812;53.540;9.774;2023-04-21T12:12:39;101661.56;;;43.19;12.35
59951;BME280;45812;53.540;9.774;2023-04-21T12:15:06;101663.66;;;43.38;11.50
59951;BME280;45812;53.540;9.774;2023-04-21T12:17:39;101670.06;;;43.74;11.73
59951;BME280;45812;53.540;9.774;2023-04-21T12:20:07;101662.91;;;43.76;10.55
59951;BME280;45812;53.540;9.774;2023-04-21T12:22:33;101658.91;;;43.77;10.76
59951;BME280;45812;53.540;9.774;2023-04-21T12:24:58;101651.53;;;43.89;10.34
59951;BME280;45812;53.540;9.774;2023-04-21T12:27:25;101653.88;;;44.06;11.28
59951;BME280;45812;53.540;9.774;2023-04-21T12:29:51;101642.19;;;44.23;11.57
59951;BME280;45812;53.540;9.774;2023-04-21T12:32:16;101651.38;;;44.43;11.54
59951;BME280;45812;53.540;9.774;2023-04-21T12:34:41;101650.41;;;44.78;10.61
59951;BME280;45812;53.540;9.774;2023-04-21T12:37:07;101641.66;;;45.06;9.26
59951;BME280;45812;53.540;9.774;2023-04-21T12:39:33;101626.31;;;44.77;9.46
59951;BME280;45812;53.540;9.774;2023-04-21T12:41:58;101644.63;;;44.67;9.61
59951;BME280;45812;53.540;9.774;2023-04-21T12:44:24;101636.00;;;45.02;9.04
59951;BME280;45812;53.540;9.774;2023-04-21T12:46:51;101634.00;;;45.03;9.73
59951;BME280;45812;53.540;9.774;2023-04-21T12:49:16;101625.00;;;45.46;8.87
59951;BME280;45812;53.540;9.774;2023-04-21T12:51:42;101630.19;;;45.74;9.05
59951;BME280;45812;53.540;9.774;2023-04-21T12:54:08;101626.28;;;45.82;9.11
59951;BME280;45812;53.540;9.774;2023-04-21T12:56:34;101618.50;;;46.02;8.96
59951;BME280;45812;53.540;9.774;2023-04-21T12:58:59;101633.94;;;46.56;8.88
59951;BME280;45812;53.540;9.774;2023-04-21T13:01:24;101618.19;;;46.52;8.08
59951;BME280;45812;53.540;9.774;2023-04-21T13:03:49;101600.84;;;46.09;8.22
59951;BME280;45812;53.540;9.774;2023-04-21T13:06:16;101608.38;;;46.38;8.86
59951;BME280;45812;53.540;9.774;2023-04-21T13:08:41;101612.41;;;46.37;8.13
59951;BME280;45812;53.540;9.774;2023-04-21T13:11:06;101606.44;;;46.42;8.37